sensor_id;sensor_type;location;lat;lon;timestamp;P1;durP1;ratioP1;P2;durP2;ratioP2
16998;SDS011;10211;49.476;11.010;2023-05-07T00:00:23;4.37;;;2.27;;
16998;SDS011;10211;49.476;11.010;2023-05-07T00:02:49;3.13;;;1.90;;
16998;SDS011;10211;49.476;11.010;2023-05-07T00:05:16;2.17;;;2.00;;
16998;SDS011;10211;49.476;11.010;2023-05-07T00:07:43;2.13;;;1.90;;
16998;SDS011;10211;49.476;11.010;2023-05-07T00:10:10;4.00;;;1.90;;
16998;SDS011;10211;49.476;11.010;2023-05-07T00:12:39;2.37;;;2.17;;
16998;SDS011;10211;49.476;11.010;2023-05-07T00:15:07;3.57;;;1.70;;
16998;SDS011;10211;49.476;11.010;2023-05-07T00:17:34;2.23;;;2.00;;
16998;SDS011;10211;49.476;11.010;2023-05-07T00:20:01;2.27;;;1.93;;
16998;SDS011;10211;49.476;11.010;2023-05-07T00:22:28;1.67;;;1.50;;
16998;SDS011;10211;49.476;11.010;2023-05-07T00:24:56;3.63;;;1.93;;
16998;SDS011;10211;49.476;11.010;2023-05-07T00:27:22;2.30;;;2.10;;
16998;SDS011;10211;49.476;11.010;2023-05-07T00:29:50;3.03;;;1.87;;
16998;SDS011;10211;49.476;11.010;2023-05-07T00:32:17;6.73;;;1.60;;
16998;SDS011;10211;49.476;11.010;2023-05-07T00:34:44;2.63;;;1.80;;
16998;SDS011;10211;49.476;11.010;2023-05-07T00:37:11;6.37;;;2.20;;
16998;SDS011;10211;49.476;11.010;2023-05-07T00:39:37;2.13;;;1.87;;
16998;SDS011;10211;49.476;11.010;2023-05-07T00:42:04;2.73;;;1.80;;
16998;SDS011;10211;49.476;11.010;2023-05-07T00:44:31;2.87;;;2.10;;
16998;SDS011;10211;49.476;11.010;2023-05-07T00:46:59;1.87;;;1.60;;
16998;SDS011;10211;49.476;11.010;2023-05-07T00:49:31;2.10;;;1.90;;
16998;SDS011;10211;49.476;11.010;2023-05-07T00:52:03;3.73;;;1.90;;
16998;SDS011;10211;49.476;11.010;2023-05-07T00:54:31;3.20;;;1.70;;
16998;SDS011;10211;49.476;11.010;2023-05-07T00:56:59;4.40;;;1.80;;
16998;SDS011;10211;49.476;11.010;2023-05-07T00:59:26;5.53;;;2.67;;
16998;SDS011;10211;49.476;11.010;2023-05-07T01:01:53;3.33;;;2.00;;
16998;SDS011;10211;49.476;11.010;2023-05-07T01:04:21;3.30;;;2.20;;
16998;SDS011;10211;49.476;11.010;2023-05-07T01:06:48;3.77;;;2.03;;
16998;SDS011;10211;49.476;11.010;2023-05-07T01:09:16;2.40;;;2.20;;
16998;SDS011;10211;49.476;11.010;2023-05-07T01:11:43;3.80;;;1.63;;
16998;SDS011;10211;49.476;11.010;2023-05-07T01:14:10;5.40;;;2.10;;
16998;SDS011;10211;49.476;11.010;2023-05-07T01:16:37;2.63;;;1.87;;
16998;SDS011;10211;49.476;11.010;2023-05-07T01:19:06;1.87;;;1.70;;
16998;SDS011;10211;49.476;11.010;2023-05-07T01:21:37;2.20;;;2.00;;
16998;SDS011;10211;49.476;11.010;2023-05-07T01:24:06;1.50;;;1.40;;
16998;SDS011;10211;49.476;11.010;2023-05-07T01:26:33;1.80;;;1.70;;
16998;SDS011;10211;49.476;11.010;2023-05-07T01:29:00;2.87;;;1.70;;
16998;SDS011;10211;49.476;11.010;2023-05-07T01:31:27;1.70;;;1.60;;
16998;SDS011;10211;49.476;11.010;2023-05-07T01:33:54;4.40;;;2.27;;
16998;SDS011;10211;49.476;11.010;2023-05-07T01:36:22;2.70;;;1.77;;
16998;SDS011;10211;49.476;11.010;2023-05-07T01:38:52;2.13;;;1.90;;
16998;SDS011;10211;49.476;11.010;2023-05-07T01:41:21;3.17;;;1.90;;
16998;SDS011;10211;49.476;11.010;2023-05-07T01:43:48;2.77;;;1.70;;
16998;SDS011;10211;49.476;11.010;2023-05-07T01:46:17;1.63;;;1.53;;
16998;SDS011;10211;49.476;11.010;2023-05-07T01:48:44;1.90;;;1.80;;
16998;SDS011;10211;49.476;11.010;2023-05-07T01:51:11;1.90;;;1.70;;
16998;SDS011;10211;49.476;11.010;2023-05-07T01:53:39;1.97;;;1.87;;
16998;SDS011;10211;49.476;11.010;2023-05-07T01:56:06;3.37;;;1.80;;
16998;SDS011;10211;49.476;11.010;2023-05-07T01:58:35;2.63;;;2.43;;
16998;SDS011;10211;49.476;11.010;2023-05-07T02:01:01;3.13;;;2.30;;
16998;SDS011;10211;49.476;11.010;2023-05-07T02:03:28;2.60;;;2.30;;
16998;SDS011;10211;49.476;11.010;2023-05-07T02:05:55;2.77;;;2.03;;
16998;SDS011;10211;49.476;11.010;2023-05-07T02:08:22;2.20;;;1.83;;
16998;SDS011;10211;49.476;11.010;2023-05-07T02:10:48;2.80;;;2.07;;
16998;SDS011;10211;49.476;11.010;2023-05-07T02:13:16;2.10;;;1.90;;
16998;SDS011;10211;49.476;11.010;2023-05-07T02:15:44;2.67;;;2.00;;
16998;SDS011;10211;49.476;11.010;2023-05-07T02:18:15;2.27;;;2.03;;
16998;SDS011;10211;49.476;11.010;2023-05-07T02:20:42;2.87;;;2.37;;
16998;SDS011;10211;49.476;11.010;2023-05-07T02:23:09;3.40;;;2.60;;
16998;SDS011;10211;49.476;11.010;2023-05-07T02:25:36;3.40;;;2.60;;
16998;SDS011;10211;49.476;11.010;2023-05-07T02:28:02;2.23;;;2.03;;
16998;SDS011;10211;49.476;11.010;2023-05-07T02:30:29;3.10;;;2.67;;
16998;SDS011;10211;49.476;11.010;2023-05-07T02:32:57;3.57;;;2.70;;
16998;SDS011;10211;49.476;11.010;2023-05-07T02:35:24;3.40;;;2.80;;
16998;SDS011;10211;49.476;11.010;2023-05-07T02:37:51;2.60;;;2.40;;
16998;SDS011;10211;49.476;11.010;2023-05-07T02:40:18;2.70;;;2.50;;
16998;SDS011;10211;49.476;11.010;2023-05-07T02:42:44;4.30;;;2.80;;
16998;SDS011;10211;49.476;11.010;2023-05-07T02:45:11;3.77;;;2.63;;
16998;SDS011;10211;49.476;11.010;2023-05-07T02:47:39;2.43;;;2.23;;
16998;SDS011;10211;49.476;11.010;2023-05-07T02:50:07;3.13;;;2.40;;
16998;SDS011;10211;49.476;11.010;2023-05-07T02:52:34;4.60;;;2.20;;
16998;SDS011;10211;49.476;11.010;2023-05-07T02:55:02;2.97;;;2.77;;
16998;SDS011;10211;49.476;11.010;2023-05-07T02:57:29;3.83;;;2.47;;
16998;SDS011;10211;49.476;11.010;2023-05-07T02:59:57;3.40;;;3.10;;
16998;SDS011;10211;49.476;11.010;2023-05-07T03:02:24;3.93;;;2.80;;
16998;SDS011;10211;49.476;11.010;2023-05-07T03:04:51;4.30;;;3.10;;
16998;SDS011;10211;49.476;11.010;2023-05-07T03:07:19;3.70;;;3.10;;
16998;SDS011;10211;49.476;11.010;2023-05-07T03:09:45;2.90;;;2.70;;
16998;SDS011;10211;49.476;11.010;2023-05-07T03:12:12;3.13;;;2.80;;
16998;SDS011;10211;49.476;11.010;2023-05-07T03:14:39;3.03;;;2.83;;
16998;SDS011;10211;49.476;11.010;2023-05-07T03:17:06;3.60;;;3.30;;
16998;SDS011;10211;49.476;11.010;2023-05-07T03:19:32;3.63;;;3.10;;
16998;SDS011;10211;49.476;11.010;2023-05-07T03:21:59;2.90;;;2.70;;
16998;SDS011;10211;49.476;11.010;2023-05-07T03:24:27;3.80;;;3.43;;
16998;SDS011;10211;49.476;11.010;2023-05-07T03:26:54;3.40;;;3.10;;
16998;SDS011;10211;49.476;11.010;2023-05-07T03:29:20;4.57;;;3.20;;
16998;SDS011;10211;49.476;11.010;2023-05-07T03:31:47;3.70;;;3.27;;
16998;SDS011;10211;49.476;11.010;2023-05-07T03:34:14;3.73;;;3.43;;
16998;SDS011;10211;49.476;11.010;2023-05-07T03:36:42;4.43;;;3.67;;
16998;SDS011;10211;49.476;11.010;2023-05-07T03:39:08;3.90;;;3.43;;
16998;SDS011;10211;49.476;11.010;2023-05-07T03:41:36;6.23;;;4.70;;
16998;SDS011;10211;49.476;11.010;2023-05-07T03:44:03;4.90;;;3.50;;
16998;SDS011;10211;49.476;11.010;2023-05-07T03:46:30;3.97;;;3.57;;
16998;SDS011;10211;49.476;11.010;2023-05-07T03:48:57;4.23;;;3.53;;
16998;SDS011;10211;49.476;11.010;2023-05-07T03:51:24;4.10;;;3.70;;
16998;SDS011;10211;49.476;11.010;2023-05-07T03:53:51;4.03;;;3.63;;
16998;SDS011;10211;49.476;11.010;2023-05-07T03:56:18;9.30;;;4.37;;
16998;SDS011;10211;49.476;11.010;2023-05-07T03:58:47;3.87;;;3.37;;
16998;SDS011;10211;49.476;11.010;2023-05-07T04:01:14;4.73;;;4.17;;
16998;SDS011;10211;49.476;11.010;2023-05-07T04:03:41;6.90;;;3.87;;
16998;SDS011;10211;49.476;11.010;2023-05-07T04:06:07;5.90;;;3.97;;
16998;SDS011;10211;49.476;11.010;2023-05-07T04:08:34;5.97;;;4.73;;
16998;SDS011;10211;49.476;11.010;2023-05-07T04:11:01;6.37;;;4.50;;
16998;SDS011;10211;49.476;11.010;2023-05-07T04:13:28;4.33;;;4.00;;
16998;SDS011;10211;49.476;11.010;2023-05-07T04:15:57;7.27;;;4.70;;
16998;SDS011;10211;49.476;11.010;2023-05-07T04:18:23;4.53;;;4.13;;
16998;SDS011;10211;49.476;11.010;2023-05-07T04:20:50;5.00;;;4.37;;
16998;SDS011;10211;49.476;11.010;2023-05-07T04:23:17;4.63;;;3.97;;
16998;SDS011;10211;49.476;11.010;2023-05-07T04:25:44;6.07;;;4.67;;
16998;SDS011;10211;49.476;11.010;2023-05-07T04:28:11;6.07;;;4.43;;
16998;SDS011;10211;49.476;11.010;2023-05-07T04:30:38;4.93;;;4.53;;
16998;SDS011;10211;49.476;11.010;2023-05-07T04:33:07;4.63;;;4.23;;
16998;SDS011;10211;49.476;11.010;2023-05-07T04:35:34;4.63;;;4.23;;
16998;SDS011;10211;49.476;11.010;2023-05-07T04:38:01;5.90;;;4.40;;
16998;SDS011;10211;49.476;11.010;2023-05-07T04:40:28;5.87;;;4.90;;
16998;SDS011;10211;49.476;11.010;2023-05-07T04:42:55;4.30;;;3.87;;
16998;SDS011;10211;49.476;11.010;2023-05-07T04:45:22;6.33;;;4.37;;
16998;SDS011;10211;49.476;11.010;2023-05-07T04:47:49;5.10;;;4.60;;
16998;SDS011;10211;49.476;11.010;2023-05-07T04:50:17;5.20;;;4.70;;
16998;SDS011;10211;49.476;11.010;2023-05-07T04:52:45;5.67;;;5.17;;
16998;SDS011;10211;49.476;11.010;2023-05-07T04:55:11;6.60;;;5.03;;
16998;SDS011;10211;49.476;11.010;2023-05-07T04:57:38;5.00;;;4.50;;
16998;SDS011;10211;49.476;11.010;2023-05-07T05:00:06;5.63;;;5.03;;
16998;SDS011;10211;49.476;11.010;2023-05-07T05:02:35;7.93;;;4.80;;
16998;SDS011;10211;49.476;11.010;2023-05-07T05:05:01;6.37;;;4.60;;
16998;SDS011;10211;49.476;11.010;2023-05-07T05:07:30;6.97;;;4.80;;
16998;SDS011;10211;49.476;11.010;2023-05-07T05:09:56;5.30;;;4.23;;
16998;SDS011;10211;49.476;11.010;2023-05-07T05:12:23;5.50;;;4.60;;
16998;SDS011;10211;49.476;11.010;2023-05-07T05:14:50;5.13;;;4.53;;
16998;SDS011;10211;49.476;11.010;2023-05-07T05:17:17;8.27;;;5.13;;
16998;SDS011;10211;49.476;11.010;2023-05-07T05:19:43;5.33;;;4.37;;
16998;SDS011;10211;49.476;11.010;2023-05-07T05:22:10;6.93;;;4.57;;
16998;SDS011;10211;49.476;11.010;2023-05-07T05:24:38;5.57;;;4.60;;
16998;SDS011;10211;49.476;11.010;2023-05-07T05:27:05;6.87;;;5.00;;
16998;SDS011;10211;49.476;11.010;2023-05-07T05:29:31;5.70;;;4.17;;
16998;SDS011;10211;49.476;11.010;2023-05-07T05:31:58;5.63;;;4.40;;
16998;SDS011;10211;49.476;11.010;2023-05-07T05:34:25;6.77;;;5.30;;
16998;SDS011;10211;49.476;11.010;2023-05-07T05:36:52;5.87;;;4.63;;
16998;SDS011;10211;49.476;11.010;2023-05-07T05:39:19;5.67;;;4.43;;
16998;SDS011;10211;49.476;11.010;2023-05-07T05:41:49;5.23;;;4.37;;
16998;SDS011;10211;49.476;11.010;2023-05-07T05:44:16;6.63;;;4.80;;
16998;SDS011;10211;49.476;11.010;2023-05-07T05:46:42;5.50;;;4.10;;
16998;SDS011;10211;49.476;11.010;2023-05-07T05:49:09;4.37;;;3.60;;
16998;SDS011;10211;49.476;11.010;2023-05-07T05:51:36;7.53;;;4.80;;
16998;SDS011;10211;49.476;11.010;2023-05-07T05:54:03;5.70;;;4.60;;
16998;SDS011;10211;49.476;11.010;2023-05-07T05:56:29;4.93;;;4.43;;
16998;SDS011;10211;49.476;11.010;2023-05-07T05:58:57;5.73;;;4.30;;
16998;SDS011;10211;49.476;11.010;2023-05-07T06:01:24;7.63;;;5.27;;
16998;SDS011;10211;49.476;11.010;2023-05-07T06:03:51;4.57;;;4.17;;
16998;SDS011;10211;49.476;11.010;2023-05-07T06:06:18;5.07;;;4.57;;
16998;SDS011;10211;49.476;11.010;2023-05-07T06:08:44;5.80;;;4.70;;
16998;SDS011;10211;49.476;11.010;2023-05-07T06:11:11;5.57;;;4.43;;
16998;SDS011;10211;49.476;11.010;2023-05-07T06:13:38;5.53;;;4.30;;
16998;SDS011;10211;49.476;11.010;2023-05-07T06:16:06;4.60;;;3.93;;
16998;SDS011;10211;49.476;11.010;2023-05-07T06:18:33;6.70;;;3.97;;
16998;SDS011;10211;49.476;11.010;2023-05-07T06:21:01;5.90;;;5.07;;
16998;SDS011;10211;49.476;11.010;2023-05-07T06:23:27;7.07;;;4.37;;
16998;SDS011;10211;49.476;11.010;2023-05-07T06:25:54;5.37;;;4.87;;
16998;SDS011;10211;49.476;11.010;2023-05-07T06:28:21;5.80;;;4.63;;
16998;SDS011;10211;49.476;11.010;2023-05-07T06:30:47;5.33;;;4.67;;
16998;SDS011;10211;49.476;11.010;2023-05-07T06:33:16;4.73;;;4.27;;
16998;SDS011;10211;49.476;11.010;2023-05-07T06:35:44;5.83;;;4.77;;
16998;SDS011;10211;49.476;11.010;2023-05-07T06:38:11;5.77;;;4.40;;
16998;SDS011;10211;49.476;11.010;2023-05-07T06:40:37;5.60;;;4.57;;
16998;SDS011;10211;49.476;11.010;2023-05-07T06:43:04;4.93;;;4.33;;
16998;SDS011;10211;49.476;11.010;2023-05-07T06:45:31;4.67;;;4.20;;
16998;SDS011;10211;49.476;11.010;2023-05-07T06:47:58;5.47;;;4.00;;
16998;SDS011;10211;49.476;11.010;2023-05-07T06:50:26;4.33;;;3.73;;
16998;SDS011;10211;49.476;11.010;2023-05-07T06:52:52;4.60;;;4.17;;
16998;SDS011;10211;49.476;11.010;2023-05-07T06:55:19;7.40;;;4.20;;
16998;SDS011;10211;49.476;11.010;2023-05-07T06:57:46;5.67;;;4.40;;
16998;SDS011;10211;49.476;11.010;2023-05-07T07:00:13;4.30;;;3.90;;
16998;SDS011;10211;49.476;11.010;2023-05-07T07:02:40;4.97;;;3.60;;
16998;SDS011;10211;49.476;11.010;2023-05-07T07:05:07;7.00;;;4.07;;
16998;SDS011;10211;49.476;11.010;2023-05-07T07:07:35;4.47;;;4.03;;
16998;SDS011;10211;49.476;11.010;2023-05-07T07:10:02;4.20;;;3.77;;
16998;SDS011;10211;49.476;11.010;2023-05-07T07:12:30;4.57;;;4.07;;
16998;SDS011;10211;49.476;11.010;2023-05-07T07:14:57;5.47;;;4.00;;
16998;SDS011;10211;49.476;11.010;2023-05-07T07:17:23;4.87;;;4.00;;
16998;SDS011;10211;49.476;11.010;2023-05-07T07:19:50;5.87;;;4.27;;
16998;SDS011;10211;49.476;11.010;2023-05-07T07:22:17;4.97;;;4.57;;
16998;SDS011;10211;49.476;11.010;2023-05-07T07:24:45;4.60;;;3.30;;
16998;SDS011;10211;49.476;11.010;2023-05-07T07:27:11;4.60;;;3.93;;
16998;SDS011;10211;49.476;11.010;2023-05-07T07:29:38;5.97;;;4.40;;
16998;SDS011;10211;49.476;11.010;2023-05-07T07:32:05;6.33;;;4.20;;
16998;SDS011;10211;49.476;11.010;2023-05-07T07:34:31;5.37;;;3.67;;
16998;SDS011;10211;49.476;11.010;2023-05-07T07:36:58;5.30;;;3.27;;
16998;SDS011;10211;49.476;11.010;2023-05-07T07:39:30;4.40;;;4.00;;
16998;SDS011;10211;49.476;11.010;2023-05-07T07:41:58;4.20;;;3.80;;
16998;SDS011;10211;49.476;11.010;2023-05-07T07:44:25;4.63;;;3.83;;
16998;SDS011;10211;49.476;11.010;2023-05-07T07:46:51;4.20;;;3.90;;
16998;SDS011;10211;49.476;11.010;2023-05-07T07:49:18;5.50;;;4.13;;
16998;SDS011;10211;49.476;11.010;2023-05-07T07:51:45;6.03;;;4.20;;
16998;SDS011;10211;49.476;11.010;2023-05-07T07:54:11;4.13;;;3.70;;
16998;SDS011;10211;49.476;11.010;2023-05-07T07:56:38;4.13;;;3.80;;
16998;SDS011;10211;49.476;11.010;2023-05-07T07:59:06;4.27;;;3.87;;
16998;SDS011;10211;49.476;11.010;2023-05-07T08:01:33;5.07;;;4.37;;
16998;SDS011;10211;49.476;11.010;2023-05-07T08:04:00;4.27;;;3.83;;
16998;SDS011;10211;49.476;11.010;2023-05-07T08:06:28;3.77;;;3.47;;
16998;SDS011;10211;49.476;11.010;2023-05-07T08:08:54;4.30;;;3.77;;
16998;SDS011;10211;49.476;11.010;2023-05-07T08:11:21;4.13;;;3.10;;
16998;SDS011;10211;49.476;11.010;2023-05-07T08:13:48;6.23;;;5.00;;
16998;SDS011;10211;49.476;11.010;2023-05-07T08:16:16;5.03;;;3.47;;
16998;SDS011;10211;49.476;11.010;2023-05-07T08:18:43;4.70;;;3.40;;
16998;SDS011;10211;49.476;11.010;2023-05-07T08:21:10;3.70;;;3.40;;
16998;SDS011;10211;49.476;11.010;2023-05-07T08:23:37;5.27;;;3.60;;
16998;SDS011;10211;49.476;11.010;2023-05-07T08:26:03;3.87;;;3.53;;
16998;SDS011;10211;49.476;11.010;2023-05-07T08:28:30;4.23;;;3.10;;
16998;SDS011;10211;49.476;11.010;2023-05-07T08:30:57;4.63;;;3.93;;
16998;SDS011;10211;49.476;11.010;2023-05-07T08:33:26;3.70;;;3.40;;
16998;SDS011;10211;49.476;11.010;2023-05-07T08:35:53;5.03;;;3.50;;
16998;SDS011;10211;49.476;11.010;2023-05-07T08:38:20;3.73;;;3.43;;
16998;SDS011;10211;49.476;11.010;2023-05-07T08:40:46;3.57;;;3.27;;
16998;SDS011;10211;49.476;11.010;2023-05-07T08:43:13;3.90;;;3.40;;
16998;SDS011;10211;49.476;11.010;2023-05-07T08:45:40;3.50;;;3.00;;
16998;SDS011;10211;49.476;11.010;2023-05-07T08:48:08;4.33;;;3.10;;
16998;SDS011;10211;49.476;11.010;2023-05-07T08:50:41;4.40;;;3.50;;
16998;SDS011;10211;49.476;11.010;2023-05-07T08:53:08;5.10;;;3.83;;
16998;SDS011;10211;49.476;11.010;2023-05-07T08:55:35;4.47;;;3.33;;
16998;SDS011;10211;49.476;11.010;2023-05-07T08:58:03;4.07;;;3.60;;
16998;SDS011;10211;49.476;11.010;2023-05-07T09:00:30;5.88;;;3.17;;
16998;SDS011;10211;49.476;11.010;2023-05-07T09:02:56;4.47;;;3.80;;
16998;SDS011;10211;49.476;11.010;2023-05-07T09:05:23;3.87;;;3.13;;
16998;SDS011;10211;49.476;11.010;2023-05-07T09:07:51;6.60;;;3.67;;
16998;SDS011;10211;49.476;11.010;2023-05-07T09:10:20;3.88;;;3.58;;
16998;SDS011;10211;49.476;11.010;2023-05-07T09:12:47;3.95;;;3.55;;
16998;SDS011;10211;49.476;11.010;2023-05-07T09:15:14;4.00;;;3.50;;
16998;SDS011;10211;49.476;11.010;2023-05-07T09:17:41;3.58;;;3.25;;
16998;SDS011;10211;49.476;11.010;2023-05-07T09:20:09;3.97;;;3.67;;
16998;SDS011;10211;49.476;11.010;2023-05-07T09:22:36;5.10;;;3.28;;
16998;SDS011;10211;49.476;11.010;2023-05-07T09:25:05;3.83;;;2.92;;
16998;SDS011;10211;49.476;11.010;2023-05-07T09:27:33;5.68;;;3.60;;
16998;SDS011;10211;49.476;11.010;2023-05-07T09:30:02;3.00;;;2.63;;
16998;SDS011;10211;49.476;11.010;2023-05-07T09:32:30;3.00;;;2.80;;
16998;SDS011;10211;49.476;11.010;2023-05-07T09:35:00;3.58;;;3.10;;
16998;SDS011;10211;49.476;11.010;2023-05-07T09:37:27;3.00;;;2.80;;
16998;SDS011;10211;49.476;11.010;2023-05-07T09:39:56;3.20;;;2.90;;
16998;SDS011;10211;49.476;11.010;2023-05-07T09:42:24;3.20;;;2.90;;
16998;SDS011;10211;49.476;11.010;2023-05-07T09:44:52;5.88;;;2.70;;
16998;SDS011;10211;49.476;11.010;2023-05-07T09:47:19;2.75;;;2.55;;
16998;SDS011;10211;49.476;11.010;2023-05-07T09:49:47;2.55;;;2.35;;
16998;SDS011;10211;49.476;11.010;2023-05-07T09:52:14;2.55;;;2.35;;
16998;SDS011;10211;49.476;11.010;2023-05-07T09:54:42;2.83;;;2.63;;
16998;SDS011;10211;49.476;11.010;2023-05-07T09:57:10;2.80;;;2.55;;
16998;SDS011;10211;49.476;11.010;2023-05-07T09:59:39;3.30;;;2.50;;
16998;SDS011;10211;49.476;11.010;2023-05-07T10:02:09;2.88;;;2.67;;
16998;SDS011;10211;49.476;11.010;2023-05-07T10:04:37;2.90;;;2.60;;
16998;SDS011;10211;49.476;11.010;2023-05-07T10:07:05;2.90;;;2.70;;
16998;SDS011;10211;49.476;11.010;2023-05-07T10:09:34;4.07;;;2.72;;
16998;SDS011;10211;49.476;11.010;2023-05-07T10:12:03;2.40;;;2.30;;
16998;SDS011;10211;49.476;11.010;2023-05-07T10:14:31;4.03;;;2.90;;
16998;SDS011;10211;49.476;11.010;2023-05-07T10:16:59;3.65;;;2.50;;
16998;SDS011;10211;49.476;11.010;2023-05-07T10:19:27;3.00;;;2.80;;
16998;SDS011;10211;49.476;11.010;2023-05-07T10:21:56;2.50;;;2.30;;
16998;SDS011;10211;49.476;11.010;2023-05-07T10:24:29;2.90;;;2.70;;
16998;SDS011;10211;49.476;11.010;2023-05-07T10:26:59;3.85;;;2.60;;
16998;SDS011;10211;49.476;11.010;2023-05-07T10:29:30;3.10;;;2.80;;
16998;SDS011;10211;49.476;11.010;2023-05-07T10:32:09;2.92;;;2.72;;
16998;SDS011;10211;49.476;11.010;2023-05-07T10:34:47;2.78;;;2.58;;
16998;SDS011;10211;49.476;11.010;2023-05-07T10:37:16;3.40;;;2.80;;
16998;SDS011;10211;49.476;11.010;2023-05-07T10:39:43;2.58;;;2.38;;
16998;SDS011;10211;49.476;11.010;2023-05-07T10:42:11;2.90;;;2.70;;
16998;SDS011;10211;49.476;11.010;2023-05-07T10:44:39;2.60;;;2.40;;
16998;SDS011;10211;49.476;11.010;2023-05-07T10:47:08;2.25;;;2.08;;
16998;SDS011;10211;49.476;11.010;2023-05-07T10:49:36;2.88;;;2.10;;
16998;SDS011;10211;49.476;11.010;2023-05-07T10:52:13;2.17;;;1.98;;
16998;SDS011;10211;49.476;11.010;2023-05-07T10:54:41;3.55;;;2.20;;
16998;SDS011;10211;49.476;11.010;2023-05-07T11:00:00;4.20;;;2.50;;
16998;SDS011;10211;49.476;11.010;2023-05-07T11:05:32;2.50;;;2.30;;
16998;SDS011;10211;49.476;11.010;2023-05-07T11:07:59;2.30;;;2.10;;
16998;SDS011;10211;49.476;11.010;2023-05-07T11:13:15;2.03;;;1.92;;
16998;SDS011;10211;49.476;11.010;2023-05-07T11:15:46;2.17;;;2.08;;
16998;SDS011;10211;49.476;11.010;2023-05-07T11:18:14;3.42;;;1.75;;
16998;SDS011;10211;49.476;11.010;2023-05-07T11:20:52;2.20;;;1.90;;
16998;SDS011;10211;49.476;11.010;2023-05-07T11:26:22;1.70;;;1.60;;
16998;SDS011;10211;49.476;11.010;2023-05-07T11:28:50;2.00;;;1.90;;
16998;SDS011;10211;49.476;11.010;2023-05-07T11:31:20;2.80;;;1.77;;
16998;SDS011;10211;49.476;11.010;2023-05-07T11:33:48;2.40;;;1.77;;
16998;SDS011;10211;49.476;11.010;2023-05-07T11:36:17;2.22;;;2.03;;
16998;SDS011;10211;49.476;11.010;2023-05-07T11:38:45;2.38;;;1.92;;
16998;SDS011;10211;49.476;11.010;2023-05-07T11:41:12;2.05;;;1.95;;
16998;SDS011;10211;49.476;11.010;2023-05-07T11:43:49;2.25;;;2.05;;
16998;SDS011;10211;49.476;11.010;2023-05-07T11:46:20;3.70;;;2.00;;
16998;SDS011;10211;49.476;11.010;2023-05-07T11:48:47;1.90;;;1.80;;
16998;SDS011;10211;49.476;11.010;2023-05-07T11:51:14;1.90;;;1.80;;
16998;SDS011;10211;49.476;11.010;2023-05-07T11:53:46;2.00;;;1.88;;
16998;SDS011;10211;49.476;11.010;2023-05-07T11:56:14;2.78;;;2.45;;
16998;SDS011;10211;49.476;11.010;2023-05-07T11:58:42;2.78;;;1.77;;
16998;SDS011;10211;49.476;11.010;2023-05-07T12:01:11;1.85;;;1.73;;
16998;SDS011;10211;49.476;11.010;2023-05-07T12:03:39;2.78;;;1.70;;
16998;SDS011;10211;49.476;11.010;2023-05-07T12:06:08;2.15;;;1.45;;
16998;SDS011;10211;49.476;11.010;2023-05-07T12:08:37;1.60;;;1.50;;
16998;SDS011;10211;49.476;11.010;2023-05-07T12:11:06;3.08;;;2.22;;
16998;SDS011;10211;49.476;11.010;2023-05-07T12:13:34;2.08;;;1.67;;
16998;SDS011;10211;49.476;11.010;2023-05-07T12:16:01;3.83;;;2.03;;
16998;SDS011;10211;49.476;11.010;2023-05-07T12:18:29;3.03;;;1.95;;
16998;SDS011;10211;49.476;11.010;2023-05-07T12:20:56;2.72;;;2.17;;
16998;SDS011;10211;49.476;11.010;2023-05-07T12:23:25;2.20;;;2.05;;
16998;SDS011;10211;49.476;11.010;2023-05-07T12:25:53;3.67;;;2.20;;
16998;SDS011;10211;49.476;11.010;2023-05-07T12:28:20;1.95;;;1.73;;
16998;SDS011;10211;49.476;11.010;2023-05-07T12:30:47;2.53;;;1.85;;
16998;SDS011;10211;49.476;11.010;2023-05-07T12:33:16;2.08;;;1.90;;
16998;SDS011;10211;49.476;11.010;2023-05-07T12:35:46;2.10;;;1.88;;
16998;SDS011;10211;49.476;11.010;2023-05-07T12:38:15;3.35;;;1.92;;
16998;SDS011;10211;49.476;11.010;2023-05-07T12:40:43;3.03;;;1.98;;
16998;SDS011;10211;49.476;11.010;2023-05-07T12:43:16;3.40;;;2.20;;
16998;SDS011;10211;49.476;11.010;2023-05-07T12:45:44;2.40;;;2.20;;
16998;SDS011;10211;49.476;11.010;2023-05-07T12:48:11;2.35;;;2.15;;
16998;SDS011;10211;49.476;11.010;2023-05-07T12:50:38;2.50;;;2.30;;
16998;SDS011;10211;49.476;11.010;2023-05-07T12:53:05;2.70;;;2.50;;
16998;SDS011;10211;49.476;11.010;2023-05-07T12:55:34;4.60;;;2.90;;
16998;SDS011;10211;49.476;11.010;2023-05-07T12:58:07;5.18;;;2.58;;
16998;SDS011;10211;49.476;11.010;2023-05-07T13:00:35;2.40;;;2.20;;
16998;SDS011;10211;49.476;11.010;2023-05-07T13:03:03;2.50;;;2.30;;
16998;SDS011;10211;49.476;11.010;2023-05-07T13:05:30;2.15;;;2.05;;
16998;SDS011;10211;49.476;11.010;2023-05-07T13:07:57;3.05;;;2.30;;
16998;SDS011;10211;49.476;11.010;2023-05-07T13:10:25;2.17;;;2.00;;
16998;SDS011;10211;49.476;11.010;2023-05-07T13:12:53;2.97;;;1.98;;
16998;SDS011;10211;49.476;11.010;2023-05-07T13:15:19;2.40;;;2.20;;
16998;SDS011;10211;49.476;11.010;2023-05-07T13:17:48;4.15;;;2.13;;
16998;SDS011;10211;49.476;11.010;2023-05-07T13:20:15;5.60;;;2.03;;
16998;SDS011;10211;49.476;11.010;2023-05-07T13:22:42;4.15;;;2.10;;
16998;SDS011;10211;49.476;11.010;2023-05-07T13:25:09;2.40;;;2.20;;
16998;SDS011;10211;49.476;11.010;2023-05-07T13:27:35;3.05;;;2.00;;
16998;SDS011;10211;49.476;11.010;2023-05-07T13:30:03;1.98;;;1.80;;
16998;SDS011;10211;49.476;11.010;2023-05-07T13:32:30;3.45;;;2.00;;
16998;SDS011;10211;49.476;11.010;2023-05-07T13:34:58;2.08;;;1.98;;
16998;SDS011;10211;49.476;11.010;2023-05-07T13:37:25;1.90;;;1.70;;
16998;SDS011;10211;49.476;11.010;2023-05-07T13:39:52;2.42;;;2.13;;
16998;SDS011;10211;49.476;11.010;2023-05-07T13:42:19;2.03;;;1.92;;
16998;SDS011;10211;49.476;11.010;2023-05-07T13:44:45;3.13;;;1.88;;
16998;SDS011;10211;49.476;11.010;2023-05-07T13:47:12;1.90;;;1.80;;
16998;SDS011;10211;49.476;11.010;2023-05-07T13:49:39;2.10;;;1.90;;
16998;SDS011;10211;49.476;11.010;2023-05-07T13:52:07;2.10;;;1.80;;
16998;SDS011;10211;49.476;11.010;2023-05-07T13:54:33;2.80;;;2.05;;
16998;SDS011;10211;49.476;11.010;2023-05-07T13:57:00;2.25;;;2.05;;
16998;SDS011;10211;49.476;11.010;2023-05-07T13:59:27;2.38;;;2.17;;
16998;SDS011;10211;49.476;11.010;2023-05-07T14:01:54;2.25;;;2.05;;
16998;SDS011;10211;49.476;11.010;2023-05-07T14:04:21;2.17;;;1.98;;
16998;SDS011;10211;49.476;11.010;2023-05-07T14:06:47;2.80;;;1.95;;
16998;SDS011;10211;49.476;11.010;2023-05-07T14:09:15;2.13;;;1.88;;
16998;SDS011;10211;49.476;11.010;2023-05-07T14:11:42;3.03;;;1.77;;
16998;SDS011;10211;49.476;11.010;2023-05-07T14:14:09;1.88;;;1.77;;
16998;SDS011;10211;49.476;11.010;2023-05-07T14:16:36;2.25;;;2.15;;
16998;SDS011;10211;49.476;11.010;2023-05-07T14:19:03;2.25;;;2.05;;
16998;SDS011;10211;49.476;11.010;2023-05-07T14:21:30;2.13;;;1.92;;
16998;SDS011;10211;49.476;11.010;2023-05-07T14:23:57;2.35;;;1.92;;
16998;SDS011;10211;49.476;11.010;2023-05-07T14:26:26;2.75;;;1.80;;
16998;SDS011;10211;49.476;11.010;2023-05-07T14:28:53;2.00;;;1.90;;
16998;SDS011;10211;49.476;11.010;2023-05-07T14:31:22;2.10;;;1.90;;
16998;SDS011;10211;49.476;11.010;2023-05-07T14:33:49;1.95;;;1.85;;
16998;SDS011;10211;49.476;11.010;2023-05-07T14:36:15;2.15;;;2.00;;
16998;SDS011;10211;49.476;11.010;2023-05-07T14:38:42;5.32;;;2.15;;
16998;SDS011;10211;49.476;11.010;2023-05-07T14:41:09;3.83;;;2.05;;
16998;SDS011;10211;49.476;11.010;2023-05-07T14:43:37;2.53;;;2.30;;
16998;SDS011;10211;49.476;11.010;2023-05-07T14:46:04;3.13;;;2.63;;